Time;durP1;ratioP1;P1;durP2;ratioP2;P2;SDS_P1;SDS_P2;PMS_P1;PMS_P2;Temp;Humidity;BMP_temperature;BMP_pressure;BME280_temperature;BME280_humidity;BME280_pressure;Samples;Min_cycle;Max_cycle;Signal;HPM_P1;HPM_P2
2023/05/12 00:01:10;;;;;;;;;;;;;;;16.84;57.04;101896.69;5076386;28;20372;-84
2023/05/12 00:03:35;;;;;;;;;;;;;;;16.78;56.93;101899.00;5075907;28;19955;-84
2023/05/12 00:06:03;;;;;;;;;;;;;;;16.77;57.04;101898.09;5091634;28;19916;-84
2023/05/12 00:08:29;;;;;;;;;;;;;;;16.71;57.18;101892.53;5090973;28;20444;-84
2023/05/12 00:10:55;;;;;;;;;;;;;;;16.77;57.10;101887.53;5092801;28;19916;-84
2023/05/12 00:13:22;;;;;;;;;;;;;;;16.74;56.92;101895.28;5075499;28;20371;-84
2023/05/12 00:15:48;;;;;;;;;;;;;;;16.79;57.24;101896.44;5091738;28;19927;-84
2023/05/12 00:18:13;;;;;;;;;;;;;;;16.66;57.05;101896.69;5092701;28;20007;-84
2023/05/12 00:20:39;;;;;;;;;;;;;;;16.67;57.33;101895.84;5092028;28;20316;-84
2023/05/12 00:23:04;;;;;;;;;;;;;;;16.65;57.17;101890.50;5093649;28;20381;-84
2023/05/12 00:25:30;;;;;;;;;;;;;;;16.69;57.36;101894.19;5092711;28;19916;-84
2023/05/12 00:27:55;;;;;;;;;;;;;;;16.65;57.43;101884.31;5093127;28;19976;-84
2023/05/12 00:30:21;;;;;;;;;;;;;;;16.64;57.42;101891.34;5092674;28;20417;-83
2023/05/12 00:32:46;;;;;;;;;;;;;;;16.65;57.33;101892.22;5093862;28;19920;-84
2023/05/12 00:35:11;;;;;;;;;;;;;;;16.63;57.74;101896.53;5057325;28;20359;-84
2023/05/12 00:37:37;;;;;;;;;;;;;;;16.66;57.36;101894.94;5087306;28;20010;-84
2023/05/12 00:40:03;;;;;;;;;;;;;;;16.68;57.35;101892.41;5083345;28;20321;-84
2023/05/12 00:42:29;;;;;;;;;;;;;;;16.65;57.33;101889.59;5075104;28;19924;-84
2023/05/12 00:44:54;;;;;;;;;;;;;;;16.57;57.35;101885.69;5074090;28;19916;-84
2023/05/12 00:47:20;;;;;;;;;;;;;;;16.54;57.56;101881.19;5090915;28;19916;-84
2023/05/12 00:49:45;;;;;;;;;;;;;;;16.56;57.48;101887.44;5073264;28;19942;-83
2023/05/12 00:52:11;;;;;;;;;;;;;;;16.55;57.42;101884.72;5074846;28;20348;-84
2023/05/12 00:54:36;;;;;;;;;;;;;;;16.58;57.62;101876.97;5086270;28;19924;-84
2023/05/12 00:57:02;;;;;;;;;;;;;;;16.59;57.36;101891.94;5074563;28;19920;-84
2023/05/12 00:59:28;;;;;;;;;;;;;;;16.54;57.52;101885.56;5074743;28;19926;-83
2023/05/12 01:01:54;;;;;;;;;;;;;;;16.55;57.40;101879.44;5084936;28;19956;-84
2023/05/12 01:04:19;;;;;;;;;;;;;;;16.63;57.11;101885.97;5074389;28;20360;-84
2023/05/12 01:06:48;;;;;;;;;;;;;;;16.64;57.81;101888.69;5074139;28;20007;-82
2023/05/12 01:09:14;;;;;;;;;;;;;;;16.58;57.48;101876.97;5070273;28;19929;-82
2023/05/12 01:11:39;;;;;;;;;;;;;;;16.58;57.39;101876.97;5070429;28;19920;-82
2023/05/12 01:14:04;;;;;;;;;;;;;;;16.62;57.11;101879.81;5090188;28;20007;-83
2023/05/12 01:16:35;;;;;;;;;;;;;;;16.55;57.67;101882.06;5091174;28;19927;-83
2023/05/12 01:19:01;;;;;;;;;;;;;;;16.53;57.67;101871.47;5073891;28;19922;-83
2023/05/12 01:21:26;;;;;;;;;;;;;;;16.58;57.51;101884.88;5075316;28;19912;-84
2023/05/12 01:23:53;;;;;;;;;;;;;;;16.56;57.67;101878.63;5092657;28;20375;-84
2023/05/12 01:26:19;;;;;;;;;;;;;;;16.59;57.47;101881.38;5072589;28;20065;-84
2023/05/12 01:28:44;;;;;;;;;;;;;;;16.55;57.72;101875.09;5073392;28;20011;-84
2023/05/12 01:31:10;;;;;;;;;;;;;;;16.54;57.66;101883.81;5074069;28;19923;-84
2023/05/12 01:33:35;;;;;;;;;;;;;;;16.46;57.73;101878.16;5074680;28;19912;-84
2023/05/12 01:36:01;;;;;;;;;;;;;;;16.54;57.72;101865.34;5091596;28;20438;-84
2023/05/12 01:38:26;;;;;;;;;;;;;;;16.51;57.97;101864.31;5091872;28;19919;-84
2023/05/12 01:40:52;;;;;;;;;;;;;;;16.50;57.80;101866.03;5074779;28;20406;-84
2023/05/12 01:43:17;;;;;;;;;;;;;;;16.53;57.82;101866.22;5073455;28;19974;-84
2023/05/12 01:45:42;;;;;;;;;;;;;;;16.47;57.81;101856.25;5085716;28;19920;-82
2023/05/12 01:48:08;;;;;;;;;;;;;;;16.47;57.91;101858.00;5085693;28;20014;-84
2023/05/12 01:50:33;;;;;;;;;;;;;;;16.46;57.87;101849.16;5086055;28;19920;-82
2023/05/12 01:52:59;;;;;;;;;;;;;;;16.45;57.82;101852.66;5090632;28;20431;-83
2023/05/12 01:55:24;;;;;;;;;;;;;;;16.45;57.88;101847.38;5088949;28;20396;-83
2023/05/12 01:57:50;;;;;;;;;;;;;;;16.37;57.83;101850.47;5041790;28;19923;-82
2023/05/12 02:00:15;;;;;;;;;;;;;;;16.38;58.11;101842.66;5087707;28;20011;-83
2023/05/12 02:02:41;;;;;;;;;;;;;;;16.39;57.80;101843.56;5087262;28;19965;-83
2023/05/12 02:05:07;;;;;;;;;;;;;;;16.48;57.69;101852.78;5073901;28;19986;-83
2023/05/12 02:07:32;;;;;;;;;;;;;;;16.44;57.94;101858.72;5057991;28;19912;-83
2023/05/12 02:09:58;;;;;;;;;;;;;;;16.43;57.86;101859.59;5082056;28;20300;-83
2023/05/12 02:12:23;;;;;;;;;;;;;;;16.46;57.69;101856.19;5072967;28;20458;-83
2023/05/12 02:14:49;;;;;;;;;;;;;;;16.42;57.85;101855.13;5091204;28;19973;-83
2023/05/12 02:17:15;;;;;;;;;;;;;;;16.36;58.00;101854.84;5087890;28;20023;-83
2023/05/12 02:19:41;;;;;;;;;;;;;;;16.30;58.16;101865.09;5088767;28;20401;-83
2023/05/12 02:22:07;;;;;;;;;;;;;;;16.36;58.06;101853.94;5091118;28;19920;-83
2023/05/12 02:24:32;;;;;;;;;;;;;;;16.42;57.64;101857.75;5069363;28;19955;-83
2023/05/12 02:27:00;;;;;;;;;;;;;;;16.32;58.18;101850.28;5088810;28;19927;-84
2023/05/12 02:29:25;;;;;;;;;;;;;;;16.37;58.12;101856.66;5091845;28;19923;-84
2023/05/12 02:31:51;;;;;;;;;;;;;;;16.36;58.16;101865.41;5090979;28;20422;-84
2023/05/12 02:34:16;;;;;;;;;;;;;;;16.42;57.87;101859.50;5089829;28;20382;-84
2023/05/12 02:36:42;;;;;;;;;;;;;;;16.34;58.14;101863.50;5071261;28;20341;-84
2023/05/12 02:39:07;;;;;;;;;;;;;;;16.35;58.11;101858.31;5071077;28;20504;-84
2023/05/12 02:41:32;;;;;;;;;;;;;;;16.29;58.33;101850.09;5085364;28;20019;-84
2023/05/12 02:43:58;;;;;;;;;;;;;;;16.27;58.12;101844.75;5091585;28;19938;-84
2023/05/12 02:46:23;;;;;;;;;;;;;;;16.33;58.15;101844.16;5091228;28;19916;-83
2023/05/12 02:48:49;;;;;;;;;;;;;;;16.32;58.06;101845.00;5089123;28;19965;-83
2023/05/12 02:51:14;;;;;;;;;;;;;;;16.32;58.02;101849.34;5070003;28;20513;-84
2023/05/12 02:53:40;;;;;;;;;;;;;;;16.31;58.10;101851.06;5069390;28;19920;-84
2023/05/12 02:56:05;;;;;;;;;;;;;;;16.27;58.07;101854.41;5047592;28;19977;-84
2023/05/12 02:58:30;;;;;;;;;;;;;;;16.36;57.86;101856.56;5084883;28;20296;-83
2023/05/12 03:00:56;;;;;;;;;;;;;;;16.36;57.75;101857.50;5084842;28;19938;-83
2023/05/12 03:03:21;;;;;;;;;;;;;;;16.38;57.81;101852.28;5069618;28;20289;-83
2023/05/12 03:05:47;;;;;;;;;;;;;;;16.35;57.88;101858.31;5070355;28;20415;-84
2023/05/12 03:08:13;;;;;;;;;;;;;;;16.28;58.03;101866.75;5087678;28;20436;-83
2023/05/12 03:10:38;;;;;;;;;;;;;;;16.32;57.90;101871.34;5071793;28;19920;-83
2023/05/12 03:13:03;;;;;;;;;;;;;;;16.27;58.07;101870.22;5082273;28;19923;-83
2023/05/12 03:15:29;;;;;;;;;;;;;;;16.28;58.01;101878.19;5088408;28;20388;-83
2023/05/12 03:17:55;;;;;;;;;;;;;;;16.26;58.18;101866.69;5085447;28;20453;-83
2023/05/12 03:20:20;;;;;;;;;;;;;;;16.26;58.27;101873.69;5086856;28;20495;-83
2023/05/12 03:22:45;;;;;;;;;;;;;;;16.26;57.96;101871.94;5088904;28;19976;-83
2023/05/12 03:25:11;;;;;;;;;;;;;;;16.23;58.40;101877.09;5067499;28;20377;-84
2023/05/12 03:27:36;;;;;;;;;;;;;;;16.21;58.27;101877.81;5069369;28;20056;-83
2023/05/12 03:30:04;;;;;;;;;;;;;;;16.20;58.33;101884.81;5071567;28;19939;-84
2023/05/12 03:32:29;;;;;;;;;;;;;;;16.23;58.45;101891.97;5089726;28;19919;-83
2023/05/12 03:34:54;;;;;;;;;;;;;;;16.24;58.01;101888.53;5067729;28;19916;-83
2023/05/12 03:37:20;;;;;;;;;;;;;;;16.22;58.40;101885.81;5086307;28;19927;-83
2023/05/12 03:39:45;;;;;;;;;;;;;;;16.13;58.76;101892.34;5071995;28;20355;-84
2023/05/12 03:42:11;;;;;;;;;;;;;;;16.15;58.66;101888.06;5068476;28;20438;-84
2023/05/12 03:44:36;;;;;;;;;;;;;;;16.12;58.30;101893.19;5066144;28;20377;-85
2023/05/12 03:47:02;;;;;;;;;;;;;;;16.10;58.58;101895.75;5053979;28;19948;-83
2023/05/12 03:49:27;;;;;;;;;;;;;;;16.12;58.38;101899.34;5070023;28;19916;-84
2023/05/12 03:51:52;;;;;;;;;;;;;;;16.06;58.66;101888.50;5085518;28;19962;-83
2023/05/12 03:54:18;;;;;;;;;;;;;;;16.06;58.25;101902.63;5085822;28;20412;-84
2023/05/12 03:56:43;;;;;;;;;;;;;;;16.11;58.29;101901.91;5085920;28;19935;-84
2023/05/12 03:59:10;;;;;;;;;;;;;;;16.07;58.70;101895.59;5087525;28;19916;-84
2023/05/12 04:01:36;;;;;;;;;;;;;;;16.11;58.35;101905.47;5077838;28;19920;-85
2023/05/12 04:04:01;;;;;;;;;;;;;;;16.07;58.68;101909.69;5086160;28;19916;-84
2023/05/12 04:06:26;;;;;;;;;;;;;;;16.02;59.10;101908.56;5064619;28;19974;-84
2023/05/12 04:08:52;;;;;;;;;;;;;;;16.07;58.62;101909.69;5083062;28;19916;-84
2023/05/12 04:11:17;;;;;;;;;;;;;;;16.09;58.32;101912.41;5080541;28;20374;-85
2023/05/12 04:13:43;;;;;;;;;;;;;;;16.04;58.75;101916.50;5088989;28;19920;-84
2023/05/12 04:16:08;;;;;;;;;;;;;;;16.08;58.54;101915.84;5091295;28;19970;-84
2023/05/12 04:18:35;;;;;;;;;;;;;;;16.12;58.56;101914.28;5074167;28;19981;-84
2023/05/12 04:21:01;;;;;;;;;;;;;;;16.06;58.47;101910.53;5088181;28;19923;-84
2023/05/12 04:23:27;;;;;;;;;;;;;;;16.10;58.86;101908.91;5074086;28;19924;-84
2023/05/12 04:25:52;;;;;;;;;;;;;;;16.11;58.60;101912.44;5081730;28;19916;-85
2023/05/12 04:28:26;;;;;;;;;;;;;;;16.17;58.25;101905.78;5085173;28;19921;-86
2023/05/12 04:30:54;;;;;;;;;;;;;;;16.17;58.20;101912.75;5058012;28;19952;-84
2023/05/12 04:33:19;;;;;;;;;;;;;;;16.18;58.17;101912.84;5065909;28;19978;-85
2023/05/12 04:35:45;;;;;;;;;;;;;;;16.18;58.50;101911.94;5059432;28;19920;-84
2023/05/12 04:38:12;;;;;;;;;;;;;;;16.11;58.87;101912.44;5087200;28;19999;-84
2023/05/12 04:40:37;;;;;;;;;;;;;;;16.07;58.66;101904.41;5086941;28;19920;-85
2023/05/12 04:43:02;;;;;;;;;;;;;;;16.17;58.33;101912.75;5086654;28;19924;-82
2023/05/12 04:45:28;;;;;;;;;;;;;;;16.16;58.58;101911.84;5081446;28;19924;-83
2023/05/12 04:47:53;;;;;;;;;;;;;;;16.11;58.80;101915.09;5090540;28;20323;-84
2023/05/12 04:50:19;;;;;;;;;;;;;;;16.05;58.75;101911.31;5066300;28;19999;-84
2023/05/12 04:52:44;;;;;;;;;;;;;;;16.10;58.54;101914.19;5092323;28;19969;-85
2023/05/12 04:55:10;;;;;;;;;;;;;;;16.09;58.50;101915.03;5066480;28;19916;-86
2023/05/12 04:57:35;;;;;;;;;;;;;;;16.12;58.69;101916.91;5061196;28;19916;-86
2023/05/12 05:00:03;;;;;;;;;;;;;;;16.13;58.82;101919.63;5072205;28;20025;-87
2023/05/12 05:02:29;;;;;;;;;;;;;;;16.22;58.45;101921.81;5052052;28;19923;-86
2023/05/12 05:04:54;;;;;;;;;;;;;;;16.12;58.54;101928.34;5069553;28;19913;-86
2023/05/12 05:07:20;;;;;;;;;;;;;;;16.15;58.47;101928.50;5067502;28;20385;-85
2023/05/12 05:09:45;;;;;;;;;;;;;;;16.12;58.89;101925.72;5073620;28;19916;-85
2023/05/12 05:12:10;;;;;;;;;;;;;;;16.16;58.66;101921.50;5069014;28;19963;-86
2023/05/12 05:14:36;;;;;;;;;;;;;;;16.17;58.67;101926.88;5071849;28;19922;-89
2023/05/12 05:17:01;;;;;;;;;;;;;;;16.16;58.77;101921.50;5050463;28;19926;-85
2023/05/12 05:19:28;;;;;;;;;;;;;;;16.19;58.62;101927.84;5078553;28;20308;-86
2023/05/12 05:21:53;;;;;;;;;;;;;;;16.13;58.76;101924.91;5087692;28;19920;-83
2023/05/12 05:24:18;;;;;;;;;;;;;;;16.22;58.35;101922.72;5085667;28;19966;-88
2023/05/12 05:26:44;;;;;;;;;;;;;;;16.23;58.28;101931.50;5065382;28;20397;-87
2023/05/12 05:29:10;;;;;;;;;;;;;;;16.23;58.25;101926.25;5068412;28;20308;-84
2023/05/12 05:31:35;;;;;;;;;;;;;;;16.22;58.07;101922.72;5063910;28;19976;-85
2023/05/12 05:34:01;;;;;;;;;;;;;;;16.23;58.41;101926.25;5082711;28;20370;-87
2023/05/12 05:36:26;;;;;;;;;;;;;;;16.21;58.15;101926.19;5072623;28;20027;-87
2023/05/12 05:38:52;;;;;;;;;;;;;;;16.19;58.33;101922.56;5055062;28;19912;-87
2023/05/12 05:41:18;;;;;;;;;;;;;;;16.10;58.29;101930.00;5083742;28;19955;-86
2023/05/12 05:43:43;;;;;;;;;;;;;;;16.07;58.54;101911.41;5092700;28;19922;-86
2023/05/12 05:46:09;;;;;;;;;;;;;;;16.12;58.12;101917.81;5074192;28;19965;-86
2023/05/12 05:48:37;;;;;;;;;;;;;;;16.08;58.25;101918.47;5064798;28;19916;-87
2023/05/12 05:51:03;;;;;;;;;;;;;;;16.07;58.36;101916.69;5074689;28;19980;-86
2023/05/12 05:53:29;;;;;;;;;;;;;;;16.02;58.41;101915.53;5076161;28;20377;-86
2023/05/12 05:55:54;;;;;;;;;;;;;;;16.02;58.01;101916.47;5076925;28;19927;-86
2023/05/12 05:58:20;;;;;;;;;;;;;;;16.06;58.17;101925.41;5093638;28;20366;-87
2023/05/12 06:00:45;;;;;;;;;;;;;;;16.04;58.34;101921.78;5061973;28;20599;-87
2023/05/12 06:03:11;;;;;;;;;;;;;;;16.04;58.19;101921.78;5076972;28;19977;-86
2023/05/12 06:05:36;;;;;;;;;;;;;;;16.04;58.16;101921.78;5075185;28;19912;-86
2023/05/12 06:08:04;;;;;;;;;;;;;;;16.08;58.33;101927.28;5075773;28;19999;-87
2023/05/12 06:10:29;;;;;;;;;;;;;;;16.13;58.30;101930.16;5093194;28;19919;-85
2023/05/12 06:12:55;;;;;;;;;;;;;;;16.11;58.19;101928.25;5092288;28;19912;-86
2023/05/12 06:15:20;;;;;;;;;;;;;;;16.11;57.85;101930.91;5092063;28;20384;-86
2023/05/12 06:17:46;;;;;;;;;;;;;;;16.11;58.15;101926.56;5092164;28;20384;-86
2023/05/12 06:20:12;;;;;;;;;;;;;;;16.11;58.19;101936.16;5073823;28;19955;-86
2023/05/12 06:22:37;;;;;;;;;;;;;;;16.11;58.06;101938.78;5074604;28;19959;-86
2023/05/12 06:25:03;;;;;;;;;;;;;;;16.07;58.13;101940.41;5078933;28;19916;-86
2023/05/12 06:27:28;;;;;;;;;;;;;;;16.06;58.22;101934.22;5092252;28;19920;-86
2023/05/12 06:29:54;;;;;;;;;;;;;;;16.10;58.10;101947.53;5078688;28;20004;-87
2023/05/12 06:32:19;;;;;;;;;;;;;;;16.13;58.02;101947.69;5091868;28;20269;-85
2023/05/12 06:34:45;;;;;;;;;;;;;;;16.10;57.56;101947.53;5073341;28;19969;-86
2023/05/12 06:37:10;;;;;;;;;;;;;;;16.10;58.13;101939.63;5073673;28;19955;-86
2023/05/12 06:39:35;;;;;;;;;;;;;;;16.16;58.03;101956.66;5091575;28;20391;-86
2023/05/12 06:42:01;;;;;;;;;;;;;;;16.18;58.27;101959.38;5056437;28;19920;-87
2023/05/12 06:44:26;;;;;;;;;;;;;;;16.19;57.63;101951.56;5091620;28;19912;-87
2023/05/12 06:46:52;;;;;;;;;;;;;;;16.21;57.55;101952.53;5056970;28;19912;-87
2023/05/12 06:49:17;;;;;;;;;;;;;;;16.29;57.42;101955.53;5061016;28;19920;-87
2023/05/12 06:51:43;;;;;;;;;;;;;;;16.14;57.53;101960.06;5053343;28;19985;-85
2023/05/12 06:54:08;;;;;;;;;;;;;;;16.17;57.86;101953.22;5069900;28;20327;-86
2023/05/12 06:56:34;;;;;;;;;;;;;;;16.21;57.44;101959.53;5090261;28;19920;-87
2023/05/12 06:59:03;;;;;;;;;;;;;;;16.24;57.74;101963.22;5061065;28;20373;-87
2023/05/12 07:01:29;;;;;;;;;;;;;;;16.27;57.39;101966.00;5073837;28;19916;-87
2023/05/12 07:03:55;;;;;;;;;;;;;;;16.22;57.58;101971.88;5073376;28;19920;-87
2023/05/12 07:06:20;;;;;;;;;;;;;;;16.31;57.19;101963.53;5053234;28;19937;-86
2023/05/12 07:08:46;;;;;;;;;;;;;;;16.23;57.51;101969.34;5070219;28;20389;-87
2023/05/12 07:11:11;;;;;;;;;;;;;;;16.25;57.43;101969.41;5091534;28;19919;-87
2023/05/12 07:13:37;;;;;;;;;;;;;;;16.29;57.23;101963.44;5090893;28;19977;-84
2023/05/12 07:16:03;;;;;;;;;;;;;;;16.24;57.03;101976.41;5091130;28;20446;-85
2023/05/12 07:18:28;;;;;;;;;;;;;;;16.22;57.46;101975.41;5090687;28;19995;-83
2023/05/12 07:20:54;;;;;;;;;;;;;;;16.17;57.83;101970.72;5091164;28;20385;-85
2023/05/12 07:23:19;;;;;;;;;;;;;;;16.21;57.36;101973.63;5091102;28;19922;-86
2023/05/12 07:25:45;;;;;;;;;;;;;;;16.23;57.49;101979.88;5091396;28;19912;-86
2023/05/12 07:28:10;;;;;;;;;;;;;;;16.26;57.77;101985.28;5090917;28;20305;-86
2023/05/12 07:30:36;;;;;;;;;;;;;;;16.22;57.63;101983.31;5091298;28;20300;-86
2023/05/12 07:33:01;;;;;;;;;;;;;;;16.28;57.76;101975.72;5072936;28;20404;-84
2023/05/12 07:35:27;;;;;;;;;;;;;;;16.30;57.61;101983.72;5072708;28;19913;-84
2023/05/12 07:37:52;;;;;;;;;;;;;;;16.29;57.62;101989.81;5091027;28;19916;-84
2023/05/12 07:40:18;;;;;;;;;;;;;;;16.29;57.34;101987.16;5072016;28;19931;-86
2023/05/12 07:42:43;;;;;;;;;;;;;;;16.28;57.81;101986.28;5064104;28;19924;-86
2023/05/12 07:45:09;;;;;;;;;;;;;;;16.24;57.68;101993.97;5072340;28;19920;-85
2023/05/12 07:47:34;;;;;;;;;;;;;;;16.27;57.74;101987.09;5064185;28;19939;-85
2023/05/12 07:49:59;;;;;;;;;;;;;;;16.34;57.65;101998.88;5073173;28;19919;-85
2023/05/12 07:52:25;;;;;;;;;;;;;;;16.37;57.81;101999.00;5086328;28;19950;-86
2023/05/12 07:54:50;;;;;;;;;;;;;;;16.32;57.78;101997.88;5076646;28;19912;-86
2023/05/12 07:57:16;;;;;;;;;;;;;;;16.31;57.49;101998.69;5065090;28;19924;-86
2023/05/12 07:59:41;;;;;;;;;;;;;;;16.34;57.67;101996.25;5071609;28;19913;-86
2023/05/12 08:02:07;;;;;;;;;;;;;;;16.36;57.61;101999.84;5086563;28;19935;-86
2023/05/12 08:04:32;;;;;;;;;;;;;;;16.38;58.13;101999.91;5073042;28;19926;-86
2023/05/12 08:06:58;;;;;;;;;;;;;;;16.47;57.54;102001.28;5094780;28;19959;-86
2023/05/12 08:09:23;;;;;;;;;;;;;;;16.41;57.52;102002.72;5057709;28;20286;-86
2023/05/12 08:11:49;;;;;;;;;;;;;;;16.38;57.60;101999.91;5086826;28;20388;-86
2023/05/12 08:14:14;;;;;;;;;;;;;;;16.39;58.14;102009.63;5076156;28;19955;-86
2023/05/12 08:16:41;;;;;;;;;;;;;;;16.41;57.89;102011.53;5094644;28;20084;-87
2023/05/12 08:19:06;;;;;;;;;;;;;;;16.40;57.80;102008.81;5094403;28;19912;-87
2023/05/12 08:21:32;;;;;;;;;;;;;;;16.41;57.73;102003.59;5063969;28;20331;-86
2023/05/12 08:23:57;;;;;;;;;;;;;;;16.39;58.00;102020.19;5073174;28;19912;-85
2023/05/12 08:26:23;;;;;;;;;;;;;;;16.45;57.63;102015.22;5069360;28;20002;-85
2023/05/12 08:28:49;;;;;;;;;;;;;;;16.40;58.12;102017.63;5094211;28;20009;-85
2023/05/12 08:31:15;;;;;;;;;;;;;;;16.42;57.80;102022.97;5094173;28;20308;-86
2023/05/12 08:33:40;;;;;;;;;;;;;;;16.46;57.84;102023.19;5076666;28;20378;-86
2023/05/12 08:36:05;;;;;;;;;;;;;;;16.45;57.76;102021.41;5093800;28;19916;-85
2023/05/12 08:38:31;;;;;;;;;;;;;;;16.47;57.73;102029.38;5094065;28;19991;-86
2023/05/12 08:40:59;;;;;;;;;;;;;;;16.53;57.60;102028.78;5075738;28;19969;-86
2023/05/12 08:43:25;;;;;;;;;;;;;;;16.55;57.43;102024.47;5093257;28;19993;-85
2023/05/12 08:45:56;;;;;;;;;;;;;;;16.56;57.76;102032.47;5064698;28;19913;-87
2023/05/12 08:48:22;;;;;;;;;;;;;;;16.56;57.64;102031.59;5075925;28;19969;-85
2023/05/12 08:50:48;;;;;;;;;;;;;;;16.49;57.98;102022.47;5075804;28;19912;-86
2023/05/12 08:53:13;;;;;;;;;;;;;;;16.55;57.81;102027.13;5093338;28;19916;-86
2023/05/12 08:55:39;;;;;;;;;;;;;;;16.58;57.58;102028.19;5093676;28;19920;-86
2023/05/12 08:58:04;;;;;;;;;;;;;;;16.54;58.34;102025.31;5074204;28;20392;-86
2023/05/12 09:00:30;;;;;;;;;;;;;;;16.55;58.13;102021.84;5075446;28;20319;-85
2023/05/12 09:02:55;;;;;;;;;;;;;;;16.54;57.79;102027.97;5056976;28;20450;-85
2023/05/12 09:05:21;;;;;;;;;;;;;;;16.55;57.95;102024.47;5064294;28;19917;-86
2023/05/12 09:07:46;;;;;;;;;;;;;;;16.54;58.18;102026.22;5072003;28;20007;-86
2023/05/12 09:10:18;;;;;;;;;;;;;;;16.53;58.19;102021.78;5072060;28;19927;-86
2023/05/12 09:12:47;;;;;;;;;;;;;;;16.59;58.42;102015.91;5055062;28;19917;-87
2023/05/12 09:15:16;;;;;;;;;;;;;;;16.58;58.12;102022.91;5072021;28;20294;-86
2023/05/12 09:17:41;;;;;;;;;;;;;;;16.60;57.96;102021.25;5093618;28;19916;-86
2023/05/12 09:20:09;;;;;;;;;;;;;;;16.61;58.77;102023.03;5093091;28;20121;-86
2023/05/12 09:22:34;;;;;;;;;;;;;;;16.61;58.18;102019.50;5093318;28;19919;-85
2023/05/12 09:25:00;;;;;;;;;;;;;;;16.61;58.31;102008.97;5074859;28;19912;-86
2023/05/12 09:27:26;;;;;;;;;;;;;;;16.58;57.90;102016.75;5087008;28;19998;-86
2023/05/12 09:29:51;;;;;;;;;;;;;;;16.60;57.82;102010.69;5075391;28;19912;-86
2023/05/12 09:32:17;;;;;;;;;;;;;;;16.59;57.88;102005.34;5093626;28;19912;-86
2023/05/12 09:34:42;;;;;;;;;;;;;;;16.64;57.98;102010.03;5093448;28;19965;-86
2023/05/12 09:37:08;;;;;;;;;;;;;;;16.66;58.23;101999.56;5093091;28;19939;-86
2023/05/12 09:39:33;;;;;;;;;;;;;;;16.59;58.00;101997.44;5063466;28;19917;-86
2023/05/12 09:41:58;;;;;;;;;;;;;;;16.60;58.02;101997.50;5071280;28;19943;-86
2023/05/12 09:44:24;;;;;;;;;;;;;;;16.65;57.98;102005.66;5084641;28;20384;-86
2023/05/12 09:46:50;;;;;;;;;;;;;;;16.62;58.01;101998.50;5074811;28;20430;-86
2023/05/12 09:49:19;;;;;;;;;;;;;;;16.65;57.93;101997.75;5063126;28;19920;-87
2023/05/12 09:51:44;;;;;;;;;;;;;;;16.64;57.64;101995.94;5071311;28;19912;-85
2023/05/12 09:54:10;;;;;;;;;;;;;;;16.60;57.84;101992.25;5088311;28;19912;-86
2023/05/12 09:56:36;;;;;;;;;;;;;;;16.67;57.54;102006.63;5087850;28;20381;-86
2023/05/12 09:59:02;;;;;;;;;;;;;;;16.66;57.31;102002.19;5071401;28;20083;-85
2023/05/12 10:01:28;;;;;;;;;;;;;;;16.68;57.36;102001.44;5074571;28;19919;-86
2023/05/12 10:03:54;;;;;;;;;;;;;;;16.70;57.61;102006.78;5091714;28;19916;-85
2023/05/12 10:06:33;;;;;;;;;;;;;;;16.72;57.71;102007.78;5077538;28;19935;-85
2023/05/12 10:09:08;;;;;;;;;;;;;;;16.75;57.38;102017.56;5060609;28;19916;-85
2023/05/12 10:11:33;;;;;;;;;;;;;;;16.77;58.09;102018.53;5064234;28;20003;-85
2023/05/12 10:13:59;;;;;;;;;;;;;;;16.76;57.64;102022.91;5087784;28;20375;-86
2023/05/12 10:16:26;;;;;;;;;;;;;;;16.75;58.70;102020.19;5087484;28;20389;-85
2023/05/12 10:18:51;;;;;;;;;;;;;;;16.79;58.30;102024.81;5070725;28;20008;-85
2023/05/12 10:21:16;;;;;;;;;;;;;;;16.76;57.67;102019.34;5082581;28;20007;-87
2023/05/12 10:23:42;;;;;;;;;;;;;;;16.77;57.98;102014.16;5090768;28;20411;-86
2023/05/12 10:26:08;;;;;;;;;;;;;;;16.80;57.73;102018.69;5090763;28;19974;-87
2023/05/12 10:28:33;;;;;;;;;;;;;;;16.80;57.75;102016.03;5056103;28;19939;-86
2023/05/12 10:30:59;;;;;;;;;;;;;;;16.79;57.71;102014.25;5083212;28;20565;-88
2023/05/12 10:33:25;;;;;;;;;;;;;;;16.78;57.78;102021.22;5072542;28;20359;-87
2023/05/12 10:35:51;;;;;;;;;;;;;;;16.81;57.69;102016.16;5070278;28;20351;-87
2023/05/12 10:38:18;;;;;;;;;;;;;;;16.82;57.85;102020.59;5071093;28;20391;-87
2023/05/12 10:40:49;;;;;;;;;;;;;;;16.79;57.86;102017.78;5058894;28;20282;-87
2023/05/12 10:43:24;;;;;;;;;;;;;;;16.84;57.84;102024.22;5087340;28;19973;-86
2023/05/12 10:46:08;;;;;;;;;;;;;;;16.83;57.69;102021.53;5063272;28;20389;-86
2023/05/12 10:48:34;;;;;;;;;;;;;;;16.86;57.90;102021.66;5070266;28;19920;-86
2023/05/12 10:51:09;;;;;;;;;;;;;;;16.86;57.67;102024.28;5087035;28;19935;-86
2023/05/12 10:53:35;;;;;;;;;;;;;;;16.91;57.62;102016.59;5090568;28;19966;-86
2023/05/12 10:56:06;;;;;;;;;;;;;;;16.93;58.10;102022.84;5072771;28;19920;-86
2023/05/12 10:58:32;;;;;;;;;;;;;;;16.95;57.82;102016.81;5091706;28;20007;-86
2023/05/12 11:01:04;;;;;;;;;;;;;;;16.96;57.61;102018.63;5076878;28;19995;-87
2023/05/12 11:03:30;;;;;;;;;;;;;;;16.96;57.61;102018.63;5080174;28;19912;-86
2023/05/12 11:06:04;;;;;;;;;;;;;;;16.96;57.69;102021.28;5067450;28;20007;-87
2023/05/12 11:08:33;;;;;;;;;;;;;;;16.95;57.23;102024.72;5087555;28;20339;-86
2023/05/12 11:10:59;;;;;;;;;;;;;;;16.98;57.85;102014.34;5073682;28;19916;-86
2023/05/12 11:13:25;;;;;;;;;;;;;;;17.00;57.92;102020.59;5072732;28;20454;-86
2023/05/12 11:15:50;;;;;;;;;;;;;;;16.96;57.45;102016.00;5090117;28;19957;-87
2023/05/12 11:18:20;;;;;;;;;;;;;;;16.95;57.25;102015.91;5054946;28;20393;-86
2023/05/12 11:20:45;;;;;;;;;;;;;;;16.97;57.44;102022.16;5069236;28;20364;-87
2023/05/12 11:23:11;;;;;;;;;;;;;;;16.98;57.52;102019.63;5074737;28;19947;-87
2023/05/12 11:25:36;;;;;;;;;;;;;;;17.02;57.70;102020.66;5090259;28;19920;-87
2023/05/12 11:28:02;;;;;;;;;;;;;;;17.03;57.49;102018.09;5055219;28;19912;-87
2023/05/12 11:30:47;;;;;;;;;;;;;;;17.08;56.86;102006.03;5083353;28;19912;-92
2023/05/12 11:33:12;;;;;;;;;;;;;;;17.39;55.61;102002.16;5044538;28;20054;-85
2023/05/12 11:35:38;;;;;;;;;;;;;;;17.39;54.68;102002.16;5091136;28;20003;-86
2023/05/12 11:38:03;;;;;;;;;;;;;;;17.27;54.03;102001.59;5089669;28;20324;-87
2023/05/12 11:40:29;;;;;;;;;;;;;;;17.16;56.92;102011.66;5085579;28;20344;-87
2023/05/12 11:42:55;;;;;;;;;;;;;;;17.11;57.30;102007.91;5089055;28;19934;-87
2023/05/12 11:45:20;;;;;;;;;;;;;;;17.10;57.85;102000.78;5086353;28;19920;-84
2023/05/12 11:47:46;;;;;;;;;;;;;;;17.10;57.92;101992.88;5082334;28;19924;-84
2023/05/12 11:50:11;;;;;;;;;;;;;;;17.18;57.62;101988.88;5080915;28;19945;-84
2023/05/12 11:52:37;;;;;;;;;;;;;;;17.17;57.18;101997.63;5082385;28;19959;-84
2023/05/12 11:55:04;;;;;;;;;;;;;;;17.17;57.60;101999.38;5081303;28;20425;-86
2023/05/12 11:57:31;;;;;;;;;;;;;;;17.21;57.53;101998.69;5084012;28;20381;-86
2023/05/12 12:00:01;;;;;;;;;;;;;;;17.20;57.48;101997.75;5079962;28;20218;-89
2023/05/12 12:02:28;;;;;;;;;;;;;;;17.22;57.30;101997.84;5058203;28;20399;-90
2023/05/12 12:04:54;;;;;;;;;;;;;;;17.20;57.26;102000.41;5085455;28;20030;-91
2023/05/12 12:07:33;;;;;;;;;;;;;;;17.22;57.20;101998.75;5086060;28;20015;-89
2023/05/12 12:10:10;;;;;;;;;;;;;;;17.24;57.32;101997.06;5063777;28;20297;-90
2023/05/12 12:12:36;;;;;;;;;;;;;;;17.16;56.74;101984.34;5064638;28;19916;-91
2023/05/12 12:15:01;;;;;;;;;;;;;;;17.17;57.57;101995.00;5085253;28;20407;-92
2023/05/12 12:17:30;;;;;;;;;;;;;;;17.20;57.62;101988.94;5084047;28;19920;-90
2023/05/12 12:19:56;;;;;;;;;;;;;;;17.24;57.37;101990.91;5082769;28;20529;-90
2023/05/12 12:22:24;;;;;;;;;;;;;;;17.26;57.27;101989.22;5080394;28;19943;-89
2023/05/12 12:24:51;;;;;;;;;;;;;;;17.27;57.30;101984.03;5084948;28;20024;-89
2023/05/12 12:27:17;;;;;;;;;;;;;;;17.24;57.03;101986.50;5083296;28;19916;-88
2023/05/12 12:29:42;;;;;;;;;;;;;;;17.25;57.36;101995.31;5079231;28;19974;-88